Time;durP1;ratioP1;P1;durP2;ratioP2;P2;SDS_P1;SDS_P2;PMS_P1;PMS_P2;Temp;Humidity;BMP_temperature;BMP_pressure;BME280_temperature;BME280_humidity;BME280_pressure;Samples;Min_cycle;Max_cycle;Signal;HPM_P1;HPM_P2
2021/01/09 00:02:13;;;;;;;3.00;1.27;;;;;;;;;;5050071;28;20188;-67
2021/01/09 00:04:40;;;;;;;2.47;1.50;;;;;;;;;;5051223;28;20226;-63
2021/01/09 00:07:10;;;;;;;1.60;1.00;;;;;;;;;;5053261;28;20671;-63
2021/01/09 00:09:36;;;;;;;1.27;1.00;;;;;;;;;;5052470;28;20197;-67
2021/01/09 00:12:03;;;;;;;1.75;1.20;;;;;;;;;;5053211;28;20212;-64
2021/01/09 00:14:30;;;;;;;2.55;1.23;;;;;;;;;;5052638;28;20184;-67
2021/01/09 00:16:56;;;;;;;2.92;1.30;;;;;;;;;;5052967;28;20294;-67
2021/01/09 00:19:23;;;;;;;1.95;1.00;;;;;;;;;;5052546;28;20220;-66
2021/01/09 00:21:52;;;;;;;1.67;0.98;;;;;;;;;;5052846;28;20196;-64
2021/01/09 00:24:19;;;;;;;1.80;1.25;;;;;;;;;;5052010;28;20244;-67
2021/01/09 00:26:45;;;;;;;1.75;1.02;;;;;;;;;;5052842;28;20246;-64
2021/01/09 00:29:11;;;;;;;1.90;1.20;;;;;;;;;;5052318;28;20192;-61
2021/01/09 00:31:38;;;;;;;1.75;1.30;;;;;;;;;;5052614;28;20196;-64
2021/01/09 00:34:04;;;;;;;5.43;3.40;;;;;;;;;;5052092;28;20716;-65
2021/01/09 00:36:32;;;;;;;34.92;17.83;;;;;;;;;;5052314;28;20278;-61
2021/01/09 00:38:58;;;;;;;3.50;2.17;;;;;;;;;;5052172;28;20226;-64
2021/01/09 00:41:31;;;;;;;2.13;1.35;;;;;;;;;;5052894;28;20219;-64
2021/01/09 00:43:58;;;;;;;2.65;1.50;;;;;;;;;;5051878;28;20197;-63
2021/01/09 00:46:25;;;;;;;2.33;1.42;;;;;;;;;;5052340;28;20203;-64
2021/01/09 00:48:51;;;;;;;1.98;1.20;;;;;;;;;;5052331;28;20652;-64
2021/01/09 00:51:18;;;;;;;2.03;1.23;;;;;;;;;;5052474;28;20282;-62
2021/01/09 00:53:45;;;;;;;1.63;1.08;;;;;;;;;;5051084;28;20614;-63
2021/01/09 00:56:14;;;;;;;1.48;1.20;;;;;;;;;;5052164;28;20701;-63
2021/01/09 00:58:41;;;;;;;1.50;1.10;;;;;;;;;;5052206;28;20204;-65
2021/01/09 01:01:07;;;;;;;1.10;1.00;;;;;;;;;;5052475;28;20205;-65
2021/01/09 01:03:33;;;;;;;2.10;1.33;;;;;;;;;;5052420;28;20205;-63
2021/01/09 01:06:00;;;;;;;2.70;1.20;;;;;;;;;;5051606;28;20274;-63
2021/01/09 01:08:27;;;;;;;2.15;1.23;;;;;;;;;;5052088;28;20215;-65
2021/01/09 01:10:54;;;;;;;3.13;1.52;;;;;;;;;;5051346;28;20247;-63
2021/01/09 01:13:21;;;;;;;3.22;1.40;;;;;;;;;;5051818;28;20239;-63
2021/01/09 01:15:48;;;;;;;3.47;1.63;;;;;;;;;;5050141;28;20265;-64
2021/01/09 01:18:14;;;;;;;2.17;1.48;;;;;;;;;;5051287;28;20207;-66
2021/01/09 01:20:41;;;;;;;2.33;1.58;;;;;;;;;;5051479;28;20199;-64
2021/01/09 01:23:07;;;;;;;15.20;7.63;;;;;;;;;;5051885;28;20224;-62
2021/01/09 01:25:33;;;;;;;5.00;2.85;;;;;;;;;;5051458;28;20221;-64
2021/01/09 01:27:59;;;;;;;3.33;2.30;;;;;;;;;;5051621;28;20231;-65
2021/01/09 01:30:26;;;;;;;2.85;1.65;;;;;;;;;;5051213;28;20673;-64
2021/01/09 01:32:52;;;;;;;3.38;1.70;;;;;;;;;;5051641;28;20558;-64
2021/01/09 01:35:18;;;;;;;2.53;1.35;;;;;;;;;;5050980;28;20712;-64
2021/01/09 01:37:47;;;;;;;1.90;1.25;;;;;;;;;;5051235;28;20200;-62
2021/01/09 01:40:13;;;;;;;1.25;1.10;;;;;;;;;;5051137;28;20209;-62
2021/01/09 01:42:40;;;;;;;2.65;1.70;;;;;;;;;;5051540;28;20266;-66
2021/01/09 01:45:09;;;;;;;3.35;1.40;;;;;;;;;;5050461;28;21050;-65
2021/01/09 01:47:35;;;;;;;1.70;1.17;;;;;;;;;;5051242;28;20693;-65
2021/01/09 01:50:03;;;;;;;1.80;1.00;;;;;;;;;;5050781;28;20199;-62
2021/01/09 01:52:29;;;;;;;1.42;1.08;;;;;;;;;;5051477;28;20235;-64
2021/01/09 01:54:56;;;;;;;1.73;1.13;;;;;;;;;;5050873;28;20196;-64
2021/01/09 01:57:22;;;;;;;1.15;1.00;;;;;;;;;;5050674;28;20215;-62
2021/01/09 01:59:48;;;;;;;1.20;0.77;;;;;;;;;;5050660;28;20628;-64
2021/01/09 02:02:14;;;;;;;1.80;0.85;;;;;;;;;;5050780;28;20204;-64
2021/01/09 02:04:41;;;;;;;2.58;0.93;;;;;;;;;;5050524;28;20728;-62
2021/01/09 02:07:13;;;;;;;1.23;0.80;;;;;;;;;;5050990;28;20207;-65
2021/01/09 02:09:41;;;;;;;5.13;2.58;;;;;;;;;;5050502;28;20188;-63
2021/01/09 02:12:16;;;;;;;1.15;0.90;;;;;;;;;;5051233;28;20196;-63
2021/01/09 02:14:48;;;;;;;0.75;0.65;;;;;;;;;;5050140;28;20277;-66
2021/01/09 02:17:16;;;;;;;1.08;0.77;;;;;;;;;;5051104;28;20247;-65
2021/01/09 02:19:44;;;;;;;1.05;0.70;;;;;;;;;;5050611;28;20228;-65
2021/01/09 02:22:14;;;;;;;0.95;0.95;;;;;;;;;;5051080;28;20563;-65
2021/01/09 02:24:41;;;;;;;1.17;0.80;;;;;;;;;;5049990;28;20231;-64
2021/01/09 02:27:09;;;;;;;0.90;0.70;;;;;;;;;;5050357;28;20204;-64
2021/01/09 02:29:41;;;;;;;0.90;0.80;;;;;;;;;;5049770;28;20262;-65
2021/01/09 02:32:09;;;;;;;1.17;0.90;;;;;;;;;;5050056;28;20189;-65
2021/01/09 02:34:41;;;;;;;1.05;0.70;;;;;;;;;;5049202;28;20228;-64
2021/01/09 02:37:08;;;;;;;0.70;0.60;;;;;;;;;;5050093;28;20213;-65
2021/01/09 02:39:34;;;;;;;1.15;0.82;;;;;;;;;;5049761;28;20238;-64
2021/01/09 02:42:01;;;;;;;1.20;0.70;;;;;;;;;;5050145;28;20180;-66
2021/01/09 02:44:27;;;;;;;1.10;0.90;;;;;;;;;;5049346;28;20216;-64
2021/01/09 02:46:54;;;;;;;1.27;0.80;;;;;;;;;;5049954;28;20740;-62
2021/01/09 02:49:20;;;;;;;0.70;0.70;;;;;;;;;;5049661;28;20204;-63
2021/01/09 02:51:46;;;;;;;1.10;0.85;;;;;;;;;;5050196;28;20196;-63
2021/01/09 02:54:13;;;;;;;1.20;0.80;;;;;;;;;;5049620;28;20852;-63
2021/01/09 02:56:39;;;;;;;0.95;0.63;;;;;;;;;;5049987;28;20262;-64
2021/01/09 02:59:05;;;;;;;1.02;0.90;;;;;;;;;;5049696;28;20565;-63
2021/01/09 03:01:31;;;;;;;2.47;1.08;;;;;;;;;;5049508;28;20736;-63
2021/01/09 03:03:58;;;;;;;6.93;2.97;;;;;;;;;;5049693;28;20290;-62
2021/01/09 03:06:25;;;;;;;11.05;6.15;;;;;;;;;;5049708;28;20204;-64
2021/01/09 03:08:51;;;;;;;4.07;2.03;;;;;;;;;;5050599;28;20214;-65
2021/01/09 03:11:18;;;;;;;1.63;0.90;;;;;;;;;;5049838;28;20219;-65
2021/01/09 03:13:44;;;;;;;0.93;0.80;;;;;;;;;;5050180;28;20802;-65
2021/01/09 03:16:10;;;;;;;0.85;0.80;;;;;;;;;;5049170;28;20685;-63
2021/01/09 03:18:37;;;;;;;1.05;0.73;;;;;;;;;;5049773;28;20200;-63
2021/01/09 03:21:04;;;;;;;0.80;0.70;;;;;;;;;;5049504;28;20222;-63
2021/01/09 03:23:30;;;;;;;2.50;1.00;;;;;;;;;;5049648;28;20212;-63
2021/01/09 03:25:56;;;;;;;1.70;0.95;;;;;;;;;;5049194;28;20674;-65
2021/01/09 03:28:22;;;;;;;4.40;1.00;;;;;;;;;;5050149;28;20751;-65
2021/01/09 03:30:49;;;;;;;2.08;0.98;;;;;;;;;;5049122;28;20199;-62
2021/01/09 03:33:16;;;;;;;2.08;0.98;;;;;;;;;;5049467;28;20291;-61
2021/01/09 03:35:42;;;;;;;1.40;0.98;;;;;;;;;;5048860;28;20334;-62
2021/01/09 03:38:09;;;;;;;1.20;1.00;;;;;;;;;;5049714;28;20189;-64
2021/01/09 03:40:35;;;;;;;1.70;1.20;;;;;;;;;;5053109;28;20207;-63
2021/01/09 03:43:02;;;;;;;1.25;1.00;;;;;;;;;;5053327;28;20189;-62
2021/01/09 03:45:28;;;;;;;13.48;7.35;;;;;;;;;;5053101;28;20224;-64
2021/01/09 03:47:54;;;;;;;7.60;3.17;;;;;;;;;;5053402;28;20192;-63
2021/01/09 03:50:21;;;;;;;1.20;1.00;;;;;;;;;;5053150;28;20211;-65
2021/01/09 03:52:47;;;;;;;1.33;1.05;;;;;;;;;;5053329;28;20670;-64
2021/01/09 03:55:13;;;;;;;1.85;1.13;;;;;;;;;;5052660;28;20726;-64
2021/01/09 03:57:39;;;;;;;2.90;1.40;;;;;;;;;;5053320;28;20283;-64
2021/01/09 04:00:24;;;;;;;2.80;1.13;;;;;;;;;;5053004;28;20185;-62
2021/01/09 04:02:50;;;;;;;1.15;1.00;;;;;;;;;;5056592;28;20911;-63
2021/01/09 04:05:16;;;;;;;1.50;1.08;;;;;;;;;;5054079;28;20212;-65
2021/01/09 04:07:43;;;;;;;2.17;1.30;;;;;;;;;;5053205;28;20200;-65
2021/01/09 04:10:09;;;;;;;1.98;1.40;;;;;;;;;;5052806;28;20200;-64
2021/01/09 04:12:36;;;;;;;1.30;1.13;;;;;;;;;;5052983;28;20747;-61
2021/01/09 04:15:03;;;;;;;1.38;1.27;;;;;;;;;;5052400;28;20222;-65
2021/01/09 04:17:30;;;;;;;1.85;1.40;;;;;;;;;;5053416;28;20682;-64
2021/01/09 04:19:56;;;;;;;2.38;1.30;;;;;;;;;;5053190;28;20212;-64
2021/01/09 04:22:25;;;;;;;1.48;1.38;;;;;;;;;;5053602;28;20181;-67
2021/01/09 04:24:51;;;;;;;1.95;1.60;;;;;;;;;;5053049;28;20209;-62
2021/01/09 04:27:17;;;;;;;3.00;2.10;;;;;;;;;;5052939;28;20200;-65
2021/01/09 04:29:43;;;;;;;2.70;1.95;;;;;;;;;;5060432;28;20215;-63
2021/01/09 04:32:09;;;;;;;3.67;2.25;;;;;;;;;;5056953;28;20231;-65
2021/01/09 04:34:36;;;;;;;2.75;1.90;;;;;;;;;;5060172;28;20272;-62
2021/01/09 04:37:03;;;;;;;3.35;2.35;;;;;;;;;;5055895;28;20231;-67
2021/01/09 04:39:29;;;;;;;2.50;1.90;;;;;;;;;;5052391;28;20200;-63
2021/01/09 04:41:55;;;;;;;3.05;2.20;;;;;;;;;;5052524;28;20204;-66
2021/01/09 04:44:21;;;;;;;3.72;2.38;;;;;;;;;;5051888;28;20207;-63
2021/01/09 04:46:50;;;;;;;3.97;2.30;;;;;;;;;;5053613;28;20275;-60
2021/01/09 04:49:20;;;;;;;2.65;2.10;;;;;;;;;;5052309;28;20614;-63
2021/01/09 04:51:47;;;;;;;2.30;2.10;;;;;;;;;;5051701;28;20200;-63
2021/01/09 04:54:14;;;;;;;3.55;2.50;;;;;;;;;;5051926;28;20311;-64
2021/01/09 04:56:43;;;;;;;3.40;2.25;;;;;;;;;;5051866;28;20279;-61
2021/01/09 04:59:09;;;;;;;2.65;2.00;;;;;;;;;;5051609;28;20713;-63
2021/01/09 05:01:36;;;;;;;4.25;2.20;;;;;;;;;;5052430;28;20191;-65
2021/01/09 05:04:03;;;;;;;2.45;2.10;;;;;;;;;;5051693;28;20270;-63
2021/01/09 05:06:29;;;;;;;3.35;2.53;;;;;;;;;;5052115;28;20659;-64
2021/01/09 05:08:55;;;;;;;3.03;2.42;;;;;;;;;;5051742;28;20538;-63
2021/01/09 05:11:23;;;;;;;4.65;2.78;;;;;;;;;;5051783;28;20204;-62
2021/01/09 05:13:49;;;;;;;4.75;2.50;;;;;;;;;;5052011;28;20700;-62
2021/01/09 05:16:16;;;;;;;4.50;2.67;;;;;;;;;;5051498;28;20224;-64
2021/01/09 05:18:42;;;;;;;4.07;3.03;;;;;;;;;;5051915;28;20185;-62
2021/01/09 05:21:12;;;;;;;2.97;2.42;;;;;;;;;;5051464;28;20204;-65
2021/01/09 05:23:52;;;;;;;4.25;2.90;;;;;;;;;;5051975;28;20199;-63
2021/01/09 05:26:22;;;;;;;4.43;2.80;;;;;;;;;;5051005;28;20251;-64
2021/01/09 05:28:52;;;;;;;6.07;2.95;;;;;;;;;;5052243;28;20203;-64
2021/01/09 05:31:19;;;;;;;4.32;2.88;;;;;;;;;;5051773;28;20285;-65
2021/01/09 05:33:45;;;;;;;6.07;2.72;;;;;;;;;;5054122;28;20196;-65
2021/01/09 05:36:12;;;;;;;5.50;3.33;;;;;;;;;;5052526;28;20240;-66
2021/01/09 05:38:40;;;;;;;5.40;3.50;;;;;;;;;;5051656;28;20200;-66
2021/01/09 05:41:08;;;;;;;4.43;2.90;;;;;;;;;;5051368;28;20263;-65
2021/01/09 05:43:35;;;;;;;7.15;4.50;;;;;;;;;;5051283;28;20208;-65
2021/01/09 05:46:02;;;;;;;5.53;3.65;;;;;;;;;;5050983;28;20220;-65
2021/01/09 05:48:29;;;;;;;4.68;3.58;;;;;;;;;;5051214;28;20698;-64
2021/01/09 05:50:56;;;;;;;7.10;4.22;;;;;;;;;;5050917;28;20229;-63
2021/01/09 05:53:36;;;;;;;5.18;3.22;;;;;;;;;;5051731;28;20915;-65
2021/01/09 05:56:03;;;;;;;5.88;3.90;;;;;;;;;;5052492;28;20272;-63
2021/01/09 05:58:30;;;;;;;5.70;3.58;;;;;;;;;;5052839;28;20202;-67
2021/01/09 06:00:57;;;;;;;6.05;3.70;;;;;;;;;;5051598;28;20201;-66
2021/01/09 06:03:34;;;;;;;3.95;3.10;;;;;;;;;;5050969;28;20266;-64
2021/01/09 06:06:04;;;;;;;4.40;3.20;;;;;;;;;;5050682;28;20274;-63
2021/01/09 06:08:31;;;;;;;3.78;2.88;;;;;;;;;;5051211;28;20207;-65
2021/01/09 06:11:01;;;;;;;5.80;3.05;;;;;;;;;;5050526;28;20231;-62
2021/01/09 06:13:30;;;;;;;5.45;3.30;;;;;;;;;;5050625;28;20200;-66
2021/01/09 06:16:02;;;;;;;5.35;3.33;;;;;;;;;;5049781;28;20223;-65
2021/01/09 06:18:28;;;;;;;6.85;3.20;;;;;;;;;;5050581;28;20238;-64
2021/01/09 06:20:56;;;;;;;6.47;3.50;;;;;;;;;;5050443;28;20193;-65
2021/01/09 06:23:23;;;;;;;4.18;2.90;;;;;;;;;;5050320;28;20211;-62
2021/01/09 06:25:51;;;;;;;4.90;3.80;;;;;;;;;;5049959;28;20227;-62
2021/01/09 06:28:19;;;;;;;6.45;4.15;;;;;;;;;;5050557;28;20287;-62
2021/01/09 06:30:50;;;;;;;6.97;4.60;;;;;;;;;;5049814;28;20197;-62
2021/01/09 06:33:18;;;;;;;6.30;4.05;;;;;;;;;;5050092;28;20244;-64
2021/01/09 06:35:45;;;;;;;5.78;4.03;;;;;;;;;;5050085;28;20343;-67
2021/01/09 06:38:11;;;;;;;7.15;4.60;;;;;;;;;;5050198;28;20200;-64
2021/01/09 06:40:38;;;;;;;7.25;4.75;;;;;;;;;;5050247;28;20196;-65
2021/01/09 06:43:06;;;;;;;6.80;4.70;;;;;;;;;;5050263;28;20293;-63
2021/01/09 06:45:40;;;;;;;7.55;4.70;;;;;;;;;;5050593;28;20224;-65
2021/01/09 06:48:07;;;;;;;7.53;4.55;;;;;;;;;;5050099;28;20188;-64
2021/01/09 06:50:34;;;;;;;7.97;5.20;;;;;;;;;;5047162;28;20208;-63
2021/01/09 06:53:01;;;;;;;8.10;5.05;;;;;;;;;;5042444;28;20196;-64
2021/01/09 06:55:47;;;;;;;8.45;5.00;;;;;;;;;;5048672;28;20205;-66
2021/01/09 06:58:14;;;;;;;8.32;5.20;;;;;;;;;;5045684;28;20587;-63
2021/01/09 07:00:41;;;;;;;6.13;4.55;;;;;;;;;;5048738;28;20666;-62
2021/01/09 07:03:13;;;;;;;7.50;5.35;;;;;;;;;;5049099;28;20230;-61
2021/01/09 07:05:45;;;;;;;9.25;6.25;;;;;;;;;;5053318;28;20663;-63
2021/01/09 07:08:38;;;;;;;9.18;6.13;;;;;;;;;;5049594;28;20203;-65
2021/01/09 07:11:05;;;;;;;7.95;6.10;;;;;;;;;;5046908;28;20228;-65
2021/01/09 07:13:32;;;;;;;8.77;6.50;;;;;;;;;;5048768;28;20200;-61
2021/01/09 07:16:09;;;;;;;9.77;6.60;;;;;;;;;;5049573;28;20200;-64
2021/01/09 07:18:49;;;;;;;10.07;6.97;;;;;;;;;;5049777;28;20192;-63
2021/01/09 07:21:18;;;;;;;9.23;6.07;;;;;;;;;;5048699;28;20608;-64
2021/01/09 07:23:48;;;;;;;10.77;6.82;;;;;;;;;;5049343;28;20188;-63
2021/01/09 07:26:17;;;;;;;9.63;7.07;;;;;;;;;;5048519;28;20671;-65
2021/01/09 07:28:44;;;;;;;10.65;7.22;;;;;;;;;;5048575;28;20254;-65
2021/01/09 07:31:11;;;;;;;11.05;6.78;;;;;;;;;;5036468;28;20196;-62
2021/01/09 07:33:38;;;;;;;9.88;6.65;;;;;;;;;;5047456;28;20298;-64
2021/01/09 07:36:05;;;;;;;10.85;7.57;;;;;;;;;;5047012;28;20216;-61
2021/01/09 07:38:31;;;;;;;10.10;7.35;;;;;;;;;;5048197;28;20214;-63
2021/01/09 07:41:00;;;;;;;11.52;7.03;;;;;;;;;;5047350;28;20243;-63
2021/01/09 07:43:46;;;;;;;11.15;7.20;;;;;;;;;;5047532;28;20276;-63
2021/01/09 07:46:27;;;;;;;14.48;7.32;;;;;;;;;;5046688;28;20232;-64
2021/01/09 07:49:01;;;;;;;9.80;6.70;;;;;;;;;;5049262;28;20208;-63
2021/01/09 07:51:48;;;;;;;11.73;6.95;;;;;;;;;;5048771;28;20188;-62
2021/01/09 07:54:34;;;;;;;12.93;6.30;;;;;;;;;;5048363;28;20867;-63
2021/01/09 07:57:01;;;;;;;11.88;6.72;;;;;;;;;;5047775;28;20278;-64
2021/01/09 07:59:28;;;;;;;10.93;6.25;;;;;;;;;;5049169;28;20207;-65
2021/01/09 08:01:54;;;;;;;8.48;6.10;;;;;;;;;;5048765;28;20201;-63
2021/01/09 08:04:20;;;;;;;10.90;6.93;;;;;;;;;;5048348;28;20205;-62
2021/01/09 08:06:51;;;;;;;106.38;35.72;;;;;;;;;;5049214;28;20224;-68
2021/01/09 08:09:17;;;;;;;26.00;18.75;;;;;;;;;;5046616;28;20192;-67
2021/01/09 08:11:44;;;;;;;9.85;7.25;;;;;;;;;;5047376;28;20291;-63
2021/01/09 08:14:13;;;;;;;13.18;8.50;;;;;;;;;;5046741;28;20191;-64
2021/01/09 08:16:40;;;;;;;13.70;7.97;;;;;;;;;;5033381;28;20193;-67
2021/01/09 08:19:12;;;;;;;13.38;8.45;;;;;;;;;;5028380;28;20251;-64
2021/01/09 08:21:39;;;;;;;11.13;8.15;;;;;;;;;;5029010;28;20221;-67
2021/01/09 08:24:05;;;;;;;12.07;8.60;;;;;;;;;;5028698;28;20216;-66
2021/01/09 08:26:32;;;;;;;14.38;9.63;;;;;;;;;;5031998;28;20743;-67
2021/01/09 08:28:58;;;;;;;13.95;9.55;;;;;;;;;;5032121;28;20623;-65
2021/01/09 08:31:28;;;;;;;14.38;9.43;;;;;;;;;;5030318;28;20729;-65
2021/01/09 08:33:56;;;;;;;29.02;18.40;;;;;;;;;;5051719;28;20208;-66
2021/01/09 08:36:24;;;;;;;153.02;103.65;;;;;;;;;;5051448;28;20239;-66
2021/01/09 08:38:50;;;;;;;18.63;13.13;;;;;;;;;;5051935;28;20197;-64
2021/01/09 08:41:16;;;;;;;15.23;10.95;;;;;;;;;;5051099;28;20708;-68
2021/01/09 08:43:43;;;;;;;16.02;10.90;;;;;;;;;;5051754;28;20295;-65
2021/01/09 08:46:12;;;;;;;17.05;11.52;;;;;;;;;;5050584;28;20292;-64
2021/01/09 08:48:39;;;;;;;15.77;10.50;;;;;;;;;;5051601;28;20223;-66
2021/01/09 08:51:13;;;;;;;16.67;10.73;;;;;;;;;;5051293;28;20181;-67
2021/01/09 08:53:39;;;;;;;15.23;10.50;;;;;;;;;;5051325;28;20295;-65
2021/01/09 08:56:05;;;;;;;15.95;9.88;;;;;;;;;;5051044;28;20177;-65
2021/01/09 08:58:33;;;;;;;13.40;9.38;;;;;;;;;;5049925;28;20593;-66
2021/01/09 09:01:05;;;;;;;13.18;8.30;;;;;;;;;;5051066;28;20189;-64
2021/01/09 09:03:32;;;;;;;11.63;8.27;;;;;;;;;;5050195;28;20193;-66
2021/01/09 09:06:07;;;;;;;11.85;8.23;;;;;;;;;;5049450;28;20211;-65
2021/01/09 09:08:34;;;;;;;71.22;48.15;;;;;;;;;;5047718;28;20751;-69
2021/01/09 09:11:01;;;;;;;338.98;207.93;;;;;;;;;;5049487;28;20177;-67
2021/01/09 09:13:28;;;;;;;14.57;8.93;;;;;;;;;;5049810;28;20295;-66
2021/01/09 09:15:54;;;;;;;11.75;8.02;;;;;;;;;;5043199;28;20196;-63
2021/01/09 09:18:21;;;;;;;10.35;7.75;;;;;;;;;;5039876;28;20201;-64
2021/01/09 09:20:51;;;;;;;12.63;8.38;;;;;;;;;;5047520;28;20192;-68
2021/01/09 09:23:18;;;;;;;13.05;9.27;;;;;;;;;;5050592;28;20262;-68
2021/01/09 09:25:44;;;;;;;15.93;10.32;;;;;;;;;;5050994;28;20232;-67
2021/01/09 09:28:11;;;;;;;17.55;11.05;;;;;;;;;;5051268;28;20251;-64
2021/01/09 09:30:37;;;;;;;15.23;10.50;;;;;;;;;;5050654;28;20219;-66
2021/01/09 09:33:13;;;;;;;11.35;7.80;;;;;;;;;;5050621;28;20183;-68
2021/01/09 09:35:40;;;;;;;12.90;9.27;;;;;;;;;;5050351;28;20224;-62
2021/01/09 09:38:09;;;;;;;16.08;9.88;;;;;;;;;;5051118;28;20188;-69
2021/01/09 09:40:37;;;;;;;14.15;9.95;;;;;;;;;;5051179;28;20204;-66
2021/01/09 09:43:14;;;;;;;20.83;13.20;;;;;;;;;;5051575;28;20291;-66
2021/01/09 09:45:54;;;;;;;21.05;14.85;;;;;;;;;;5050040;28;20235;-66
2021/01/09 09:48:28;;;;;;;16.30;12.38;;;;;;;;;;5050809;28;20185;-68
2021/01/09 09:51:07;;;;;;;23.92;15.38;;;;;;;;;;5050431;28;20203;-66
2021/01/09 09:53:38;;;;;;;22.02;15.30;;;;;;;;;;5049840;28;20192;-64
2021/01/09 09:56:15;;;;;;;27.02;16.52;;;;;;;;;;5050124;28;20291;-66
2021/01/09 09:58:41;;;;;;;17.88;12.82;;;;;;;;;;5050548;28;20666;-65
2021/01/09 10:01:16;;;;;;;18.65;12.82;;;;;;;;;;5050360;28;20649;-65
2021/01/09 10:03:42;;;;;;;17.67;12.93;;;;;;;;;;5048315;28;20227;-67
2021/01/09 10:06:09;;;;;;;17.30;12.68;;;;;;;;;;5049898;28;20204;-66
2021/01/09 10:08:39;;;;;;;15.48;10.80;;;;;;;;;;5050339;28;20191;-66
2021/01/09 10:11:05;;;;;;;20.70;11.85;;;;;;;;;;5041477;28;20192;-68
2021/01/09 10:13:32;;;;;;;22.95;13.10;;;;;;;;;;5042360;28;20189;-68
2021/01/09 10:16:00;;;;;;;14.27;9.75;;;;;;;;;;5049088;28;20196;-65
2021/01/09 10:18:27;;;;;;;13.50;10.02;;;;;;;;;;5050466;28;20196;-63
2021/01/09 10:20:53;;;;;;;13.82;10.07;;;;;;;;;;5050552;28;20224;-67
2021/01/09 10:23:20;;;;;;;16.17;10.55;;;;;;;;;;5050599;28;20207;-68
2021/01/09 10:25:47;;;;;;;16.95;12.20;;;;;;;;;;5049706;28;20252;-63
2021/01/09 10:28:13;;;;;;;17.00;10.55;;;;;;;;;;5050158;28;20204;-65
2021/01/09 10:30:39;;;;;;;32.50;17.25;;;;;;;;;;5048505;28;20671;-62
2021/01/09 10:33:06;;;;;;;58.60;35.92;;;;;;;;;;5050382;28;20289;-66
2021/01/09 10:35:32;;;;;;;177.13;129.00;;;;;;;;;;5048843;28;20235;-69
2021/01/09 10:37:58;;;;;;;17.77;12.50;;;;;;;;;;5050322;28;20192;-65
2021/01/09 10:40:25;;;;;;;18.88;11.77;;;;;;;;;;5049688;28;20195;-66
2021/01/09 10:42:52;;;;;;;22.40;13.30;;;;;;;;;;5050158;28;20212;-65
2021/01/09 10:45:18;;;;;;;17.73;12.32;;;;;;;;;;5049324;28;20216;-68
2021/01/09 10:47:44;;;;;;;20.13;12.38;;;;;;;;;;5050337;28;20234;-67
2021/01/09 10:50:19;;;;;;;23.55;13.20;;;;;;;;;;5049169;28;20563;-65
2021/01/09 10:52:46;;;;;;;15.30;11.48;;;;;;;;;;5048066;28;20295;-67
2021/01/09 10:55:12;;;;;;;14.38;10.52;;;;;;;;;;5048962;28;20210;-65
2021/01/09 10:57:38;;;;;;;17.27;11.38;;;;;;;;;;5049914;28;20218;-68
2021/01/09 11:00:07;;;;;;;16.52;11.23;;;;;;;;;;5048811;28;20247;-65
2021/01/09 11:02:33;;;;;;;14.48;11.02;;;;;;;;;;5049592;28;20198;-68
2021/01/09 11:05:00;;;;;;;14.15;9.40;;;;;;;;;;5049138;28;20231;-64
2021/01/09 11:07:26;;;;;;;16.38;10.25;;;;;;;;;;5048339;28;20200;-65
2021/01/09 11:09:53;;;;;;;14.60;10.35;;;;;;;;;;5046943;28;20200;-66
2021/01/09 11:12:20;;;;;;;12.20;9.68;;;;;;;;;;5048446;28;20196;-70
2021/01/09 11:14:47;;;;;;;12.15;9.60;;;;;;;;;;5047137;28;20188;-68
2021/01/09 11:17:13;;;;;;;17.23;9.88;;;;;;;;;;5049225;28;20864;-67
2021/01/09 11:19:39;;;;;;;12.40;9.30;;;;;;;;;;5049471;28;20214;-66
2021/01/09 11:22:06;;;;;;;12.85;9.88;;;;;;;;;;5049390;28;20200;-67
2021/01/09 11:24:32;;;;;;;14.15;9.68;;;;;;;;;;5048141;28;20196;-67
2021/01/09 11:27:01;;;;;;;13.80;10.40;;;;;;;;;;5048224;28;20228;-73
2021/01/09 11:29:27;;;;;;;16.17;10.13;;;;;;;;;;5039951;28;20213;-68
2021/01/09 11:32:00;;;;;;;13.95;9.85;;;;;;;;;;5035087;28;20203;-70
2021/01/09 11:34:27;;;;;;;12.55;9.77;;;;;;;;;;5048922;28;20271;-63
2021/01/09 11:36:54;;;;;;;86.15;56.50;;;;;;;;;;5040081;28;20267;-69
2021/01/09 11:39:20;;;;;;;33.22;21.83;;;;;;;;;;5031287;28;20197;-68
2021/01/09 11:41:47;;;;;;;18.95;11.52;;;;;;;;;;5029994;28;20204;-69
2021/01/09 11:44:15;;;;;;;16.90;11.63;;;;;;;;;;5030974;28;20193;-69
2021/01/09 11:46:41;;;;;;;15.52;11.57;;;;;;;;;;5040425;28;20278;-65
2021/01/09 11:49:07;;;;;;;15.75;12.02;;;;;;;;;;5048928;28;20270;-70
2021/01/09 11:51:34;;;;;;;21.88;12.70;;;;;;;;;;5048949;28;20197;-69
2021/01/09 11:54:01;;;;;;;18.77;13.38;;;;;;;;;;5049184;28;20218;-64
2021/01/09 11:56:32;;;;;;;19.30;13.80;;;;;;;;;;5049710;28;20707;-69
2021/01/09 11:58:58;;;;;;;24.42;14.48;;;;;;;;;;5049394;28;20219;-67
2021/01/09 12:01:33;;;;;;;21.77;15.15;;;;;;;;;;5052260;28;20687;-67
2021/01/09 12:04:00;;;;;;;21.00;13.82;;;;;;;;;;5052033;28;20578;-68
2021/01/09 12:06:26;;;;;;;20.88;14.85;;;;;;;;;;5052821;28;20223;-69
2021/01/09 12:08:52;;;;;;;20.08;13.75;;;;;;;;;;5051367;28;20291;-69
2021/01/09 12:11:20;;;;;;;21.45;15.35;;;;;;;;;;5052284;28;20188;-68
2021/01/09 12:13:47;;;;;;;21.77;15.70;;;;;;;;;;5052338;28;20201;-69
2021/01/09 12:16:14;;;;;;;22.45;15.05;;;;;;;;;;5052141;28;20214;-68
2021/01/09 12:18:41;;;;;;;21.92;15.85;;;;;;;;;;5052464;28;20255;-66
2021/01/09 12:21:07;;;;;;;20.83;15.38;;;;;;;;;;5051390;28;20192;-68
2021/01/09 12:23:33;;;;;;;22.58;15.90;;;;;;;;;;5041397;28;20232;-67
2021/01/09 12:26:00;;;;;;;22.42;15.23;;;;;;;;;;5039087;28;20216;-68
2021/01/09 12:28:26;;;;;;;23.50;15.88;;;;;;;;;;5051506;28;20192;-68
2021/01/09 12:30:53;;;;;;;22.58;16.63;;;;;;;;;;5074324;28;20189;-70
2021/01/09 12:33:20;;;;;;;25.88;17.00;;;;;;;;;;5044791;28;20199;-68
2021/01/09 12:35:46;;;;;;;25.48;17.73;;;;;;;;;;5051187;28;20295;-66
2021/01/09 12:38:14;;;;;;;22.27;17.17;;;;;;;;;;5052119;28;20185;-65
2021/01/09 12:40:40;;;;;;;23.00;16.00;;;;;;;;;;5050874;28;20212;-67
2021/01/09 12:43:06;;;;;;;25.85;17.17;;;;;;;;;;5051466;28;20283;-65
2021/01/09 12:45:33;;;;;;;23.40;17.05;;;;;;;;;;5050434;28;20764;-71
2021/01/09 12:48:00;;;;;;;24.83;16.67;;;;;;;;;;5051878;28;20192;-65
2021/01/09 12:50:31;;;;;;;20.63;15.13;;;;;;;;;;5050905;28;20204;-64
2021/01/09 12:52:57;;;;;;;21.60;15.50;;;;;;;;;;5051518;28;20196;-67
2021/01/09 12:55:23;;;;;;;24.90;17.80;;;;;;;;;;5050461;28;20276;-69
2021/01/09 12:57:49;;;;;;;19.77;15.27;;;;;;;;;;5049917;28;20701;-63
2021/01/09 13:00:16;;;;;;;23.00;15.57;;;;;;;;;;5050744;28;20219;-70
2021/01/09 13:02:42;;;;;;;23.67;15.48;;;;;;;;;;5051861;28;20239;-68
2021/01/09 13:05:09;;;;;;;21.20;13.95;;;;;;;;;;5050823;28;20279;-68
2021/01/09 13:07:36;;;;;;;70.22;49.83;;;;;;;;;;5051293;28;20196;-67
2021/01/09 13:10:03;;;;;;;51.15;38.50;;;;;;;;;;5051051;28;20197;-64
2021/01/09 13:12:29;;;;;;;18.20;12.82;;;;;;;;;;5039031;28;20199;-65
2021/01/09 13:14:56;;;;;;;18.70;11.85;;;;;;;;;;5030626;28;20189;-67
2021/01/09 13:17:22;;;;;;;16.45;11.90;;;;;;;;;;5031447;28;20283;-67
2021/01/09 13:19:49;;;;;;;16.02;11.70;;;;;;;;;;5037516;28;20203;-67
2021/01/09 13:22:16;;;;;;;16.05;12.00;;;;;;;;;;5051338;28;20177;-66
2021/01/09 13:24:42;;;;;;;22.48;13.32;;;;;;;;;;5050303;28;20205;-67
2021/01/09 13:27:08;;;;;;;23.58;14.13;;;;;;;;;;5049875;28;20218;-67
2021/01/09 13:29:36;;;;;;;21.13;14.10;;;;;;;;;;5049408;28;20753;-66
2021/01/09 13:32:04;;;;;;;21.50;15.55;;;;;;;;;;5050889;28;20194;-65
2021/01/09 13:34:30;;;;;;;24.23;16.05;;;;;;;;;;5050338;28;20311;-65
2021/01/09 13:36:57;;;;;;;26.50;15.63;;;;;;;;;;5051178;28;20197;-67
2021/01/09 13:39:23;;;;;;;21.73;15.07;;;;;;;;;;5050560;28;20519;-67
2021/01/09 13:41:49;;;;;;;20.98;14.65;;;;;;;;;;5049335;28;20296;-66
2021/01/09 13:44:16;;;;;;;21.98;15.65;;;;;;;;;;5050664;28;21092;-67
2021/01/09 13:46:42;;;;;;;19.63;14.93;;;;;;;;;;5050428;28;20570;-68
2021/01/09 13:49:11;;;;;;;21.30;15.88;;;;;;;;;;5050425;28;20262;-67
2021/01/09 13:51:38;;;;;;;22.67;15.63;;;;;;;;;;5050833;28;20177;-69
2021/01/09 13:54:05;;;;;;;54.78;33.72;;;;;;;;;;5050293;28;20267;-65
2021/01/09 13:56:40;;;;;;;23.85;16.63;;;;;;;;;;5050014;28;20193;-67
2021/01/09 13:59:17;;;;;;;28.42;16.88;;;;;;;;;;5068660;28;20199;-67
2021/01/09 14:01:43;;;;;;;27.48;15.90;;;;;;;;;;5040316;28;20913;-67
2021/01/09 14:04:11;;;;;;;21.55;14.55;;;;;;;;;;5049806;28;20300;-66
2021/01/09 14:06:37;;;;;;;23.63;15.15;;;;;;;;;;5050109;28;20686;-65
2021/01/09 14:09:04;;;;;;;19.55;13.68;;;;;;;;;;5049943;28;20192;-67
2021/01/09 14:11:31;;;;;;;21.15;14.50;;;;;;;;;;5048756;28;20593;-66
2021/01/09 14:13:58;;;;;;;20.73;14.25;;;;;;;;;;5050402;28;20671;-67
2021/01/09 14:16:29;;;;;;;21.08;14.98;;;;;;;;;;5050518;28;20211;-66
2021/01/09 14:18:56;;;;;;;23.15;14.82;;;;;;;;;;5049804;28;20658;-67
2021/01/09 14:21:23;;;;;;;20.70;14.63;;;;;;;;;;5050593;28;20749;-69
2021/01/09 14:23:50;;;;;;;19.48;14.52;;;;;;;;;;5048749;28;20192;-66
2021/01/09 14:26:17;;;;;;;22.20;15.40;;;;;;;;;;5029313;28;20236;-65
2021/01/09 14:28:43;;;;;;;22.50;15.45;;;;;;;;;;5030009;28;20658;-67
2021/01/09 14:31:09;;;;;;;23.10;16.15;;;;;;;;;;5029631;28;20211;-66
2021/01/09 14:33:36;;;;;;;24.52;16.27;;;;;;;;;;5027477;28;20205;-64
2021/01/09 14:36:02;;;;;;;24.17;15.48;;;;;;;;;;5028762;28;20279;-66